Terminal Aerodrome Forecast
Issued by NWS Topeka, KS

Home | Current Version | Previous Version | Text Only | Print | Product List | Glossary Off
Versions: 1 2 3 4 5 6 7 8 9 10 11 12 13 14 15

000
FTUS43 KTOP 291700
TAFTOP
TAF
KTOP 291720Z 2918/3018 33017G25KT P6SM SCT150
     FM300100 VRB02KT P6SM SKC
     FM301400 20007KT P6SM SCT150=

USA.gov is the U.S. government's official web portal to all federal, state and local government web resources and services.